createdAt,value
2023-04-09T00:02:01.501Z,94049.75
2023-04-09T00:04:27.998Z,94120.59
2023-04-09T00:06:54.375Z,94208.63
2023-04-09T00:09:20.867Z,94280.28
2023-04-09T00:11:47.236Z,94329.69
2023-04-09T00:14:13.575Z,94356.75
2023-04-09T00:16:40.556Z,94388.50
2023-04-09T00:19:07.618Z,94421.88
2023-04-09T00:21:33.996Z,94466.22
2023-04-09T00:24:00.601Z,94483.72
2023-04-09T00:26:27.349Z,94484.03
2023-04-09T00:28:53.845Z,94476.53
2023-04-09T00:31:20.995Z,94463.94
2023-04-09T00:33:47.463Z,94453.56
2023-04-09T00:36:13.857Z,94465.47
2023-04-09T00:38:40.724Z,94398.75
2023-04-09T00:41:07.764Z,94310.53
2023-04-09T00:43:34.150Z,94243.66
2023-04-09T00:46:00.762Z,94198.47
2023-04-09T00:48:27.492Z,94153.81
2023-04-09T00:50:53.849Z,94116.56
2023-04-09T00:53:20.192Z,94109.63
2023-04-09T00:55:46.832Z,94144.09
2023-04-09T00:58:13.649Z,94168.38
2023-04-09T01:00:40.405Z,94175.66
2023-04-09T01:03:07.089Z,94147.84
2023-04-09T01:06:19.885Z,94126.78
2023-04-09T01:08:55.888Z,94124.84
2023-04-09T01:11:32.525Z,94116.09
2023-04-09T01:14:05.941Z,94108.97
2023-04-09T01:16:32.765Z,94084.03
2023-04-09T01:19:06.939Z,94051.03
2023-04-09T01:21:33.765Z,93995.53
2023-04-09T01:24:03.122Z,93977.94
2023-04-09T01:26:29.506Z,93912.75
2023-04-09T01:28:56.474Z,93864.03
2023-04-09T01:31:31.296Z,93805.75
2023-04-09T01:33:57.850Z,93786.06
2023-04-09T01:36:24.371Z,93761.47
2023-04-09T01:38:51.793Z,93744.94
2023-04-09T01:41:19.653Z,93737.97
2023-04-09T01:43:46.004Z,93732.78
2023-04-09T01:46:12.580Z,93714.16
2023-04-09T01:48:38.917Z,93727.59
2023-04-09T01:51:05.498Z,93734.63
2023-04-09T01:53:32.094Z,93737.56
2023-04-09T01:56:01.593Z,93737.09
2023-04-09T01:58:28.093Z,93727.84
2023-04-09T02:00:57.739Z,93707.25
2023-04-09T02:03:32.409Z,93698.06
2023-04-09T02:06:05.048Z,93694.47
2023-04-09T02:08:31.379Z,93716.84
2023-04-09T02:10:58.678Z,93706.50
2023-04-09T02:13:26.000Z,93712.31
2023-04-09T02:15:52.510Z,93729.78
2023-04-09T02:18:27.420Z,93727.50
2023-04-09T02:20:57.114Z,93742.09
2023-04-09T02:23:23.607Z,93738.53
2023-04-09T02:25:50.762Z,93748.56
2023-04-09T02:28:17.100Z,93746.47
2023-04-09T02:30:43.467Z,93748.56
2023-04-09T02:33:09.984Z,93893.50
2023-04-09T02:35:36.475Z,93905.47
2023-04-09T02:38:03.043Z,93911.63
2023-04-09T02:40:29.571Z,93919.38
2023-04-09T02:42:55.961Z,93897.88
2023-04-09T02:45:22.306Z,93847.25
2023-04-09T02:47:48.761Z,93756.16
2023-04-09T02:50:15.140Z,93550.25
2023-04-09T02:52:41.498Z,93324.91
2023-04-09T02:55:08.494Z,92822.63
2023-04-09T02:57:34.865Z,92702.19
2023-04-09T03:00:01.229Z,92674.72
2023-04-09T03:02:27.944Z,93425.47
2023-04-09T03:04:54.415Z,93381.75
2023-04-09T03:07:20.821Z,93350.41
2023-04-09T03:09:47.374Z,93284.78
2023-04-09T03:12:13.755Z,93115.34
2023-04-09T03:14:40.172Z,93037.34
2023-04-09T03:17:06.532Z,92976.63
2023-04-09T03:19:32.903Z,92914.75
2023-04-09T03:21:59.327Z,92883.31
2023-04-09T03:24:25.963Z,92864.78
2023-04-09T03:26:52.311Z,92777.03
2023-04-09T03:29:18.988Z,92775.41
2023-04-09T03:31:45.607Z,92733.25
2023-04-09T03:34:11.962Z,92713.56
2023-04-09T03:36:38.326Z,92685.91
2023-04-09T03:39:04.749Z,92648.88
2023-04-09T03:41:31.111Z,92640.09
2023-04-09T03:43:57.522Z,92712.34
2023-04-09T03:46:25.078Z,92761.03
2023-04-09T03:48:51.819Z,92805.97
2023-04-09T03:51:18.465Z,92823.50
2023-04-09T03:53:45.052Z,92826.25
2023-04-09T03:56:11.470Z,92824.69
2023-04-09T03:58:37.816Z,92826.47
2023-04-09T04:01:04.361Z,92866.69
2023-04-09T04:03:30.930Z,92883.56
2023-04-09T04:06:03.817Z,92871.22
2023-04-09T04:08:30.271Z,92878.03
2023-04-09T04:10:56.641Z,92868.88
2023-04-09T04:13:23.116Z,92840.25
2023-04-09T04:15:52.609Z,92816.00
2023-04-09T04:18:19.091Z,92812.84
2023-04-09T04:20:45.468Z,92806.31
2023-04-09T04:23:11.999Z,92805.13
2023-04-09T04:25:41.487Z,92806.53
2023-04-09T04:28:08.110Z,92830.00
2023-04-09T04:30:34.678Z,92847.91
2023-04-09T04:33:01.150Z,92861.06
2023-04-09T04:35:27.523Z,92861.91
2023-04-09T04:37:54.123Z,92856.34
2023-04-09T04:40:20.678Z,92867.72
2023-04-09T04:42:47.088Z,92877.50
2023-04-09T04:45:13.466Z,92894.06
2023-04-09T04:47:39.846Z,92899.06
2023-04-09T04:50:07.214Z,92928.34
2023-04-09T04:52:33.840Z,92951.69
2023-04-09T04:55:00.250Z,92982.41
2023-04-09T04:57:26.596Z,93009.53
2023-04-09T04:59:53.220Z,93045.19
2023-04-09T05:02:19.789Z,93071.31
2023-04-09T05:04:46.400Z,93100.09
2023-04-09T05:07:12.944Z,93138.13
2023-04-09T05:09:39.353Z,93162.88
2023-04-09T05:12:05.884Z,93199.75
2023-04-09T05:14:32.318Z,93205.78
2023-04-09T05:16:59.153Z,93212.63
2023-04-09T05:19:25.628Z,93218.84
2023-04-09T05:21:52.166Z,93236.22
2023-04-09T05:24:18.523Z,93255.59
2023-04-09T05:26:44.867Z,93276.97
2023-04-09T05:29:11.545Z,93298.31
2023-04-09T05:31:37.979Z,93319.28
2023-04-09T05:34:04.431Z,93339.03
2023-04-09T05:36:32.319Z,93371.97
2023-04-09T05:38:58.705Z,93427.72
2023-04-09T05:41:25.306Z,93474.75
2023-04-09T05:43:51.886Z,93452.91
2023-04-09T05:46:18.520Z,93436.22
2023-04-09T05:48:45.152Z,93451.97
2023-04-09T05:51:11.701Z,93446.84
2023-04-09T05:53:38.060Z,93444.31
2023-04-09T05:56:13.428Z,93428.81
2023-04-09T05:58:39.767Z,93406.31
2023-04-09T06:01:06.133Z,93385.41
2023-04-09T06:03:32.819Z,93387.03
2023-04-09T06:05:59.255Z,93399.00
2023-04-09T06:08:25.716Z,93391.84
2023-04-09T06:10:52.274Z,93379.94
2023-04-09T06:13:18.761Z,93396.72
2023-04-09T06:15:45.460Z,93387.59
2023-04-09T06:18:11.834Z,93391.03
2023-04-09T06:20:38.237Z,93405.22
2023-04-09T06:23:05.348Z,93410.06
2023-04-09T06:25:32.199Z,93434.03
2023-04-09T06:27:58.571Z,93440.25
2023-04-09T06:30:24.924Z,93462.44
2023-04-09T06:32:54.945Z,93481.22
2023-04-09T06:35:22.095Z,93497.25
2023-04-09T06:37:48.479Z,93514.25
2023-04-09T06:40:15.024Z,93521.66
2023-04-09T06:42:41.441Z,93526.47
2023-04-09T06:45:08.661Z,93536.50
2023-04-09T06:47:36.033Z,93538.31
2023-04-09T06:50:02.903Z,93559.69
2023-04-09T06:52:29.312Z,93579.66
2023-04-09T06:54:56.065Z,93639.13
2023-04-09T06:57:22.408Z,93656.69
2023-04-09T06:59:48.754Z,93654.34
2023-04-09T07:02:15.681Z,93646.38
2023-04-09T07:04:42.522Z,93637.06
2023-04-09T07:07:08.950Z,93626.53
2023-04-09T07:09:35.384Z,93633.56
2023-04-09T07:12:01.753Z,93646.19
2023-04-09T07:14:28.134Z,93677.38
2023-04-09T07:16:54.693Z,93718.53
2023-04-09T07:19:21.024Z,93732.56
2023-04-09T07:21:47.388Z,93731.03
2023-04-09T07:24:13.758Z,93688.31
2023-04-09T07:26:40.104Z,93518.53
2023-04-09T07:29:06.729Z,93317.97
2023-04-09T07:31:35.789Z,93175.81
2023-04-09T07:34:02.547Z,93102.59
2023-04-09T07:36:28.985Z,93071.19
2023-04-09T07:38:55.554Z,93099.59
2023-04-09T07:41:21.988Z,93152.81
2023-04-09T07:43:48.341Z,93203.78
2023-04-09T07:46:23.922Z,93217.41
2023-04-09T07:48:50.853Z,93247.41
2023-04-09T07:51:17.478Z,93356.63
2023-04-09T07:53:43.994Z,93496.84
2023-04-09T07:56:10.363Z,93622.34
2023-04-09T07:58:38.029Z,93756.25
2023-04-09T08:01:05.008Z,93922.81
2023-04-09T08:03:31.728Z,94052.09
2023-04-09T08:05:58.377Z,94164.13
2023-04-09T08:08:24.769Z,94265.53
2023-04-09T08:10:51.612Z,94348.66
2023-04-09T08:13:17.975Z,94410.56
2023-04-09T08:15:44.352Z,94453.66
2023-04-09T08:18:10.801Z,94554.03
2023-04-09T08:20:37.805Z,94672.13
2023-04-09T08:23:04.228Z,94772.34
2023-04-09T08:25:30.883Z,94892.56
2023-04-09T08:27:58.063Z,94989.06
2023-04-09T08:30:24.631Z,95097.13
2023-04-09T08:32:51.136Z,95190.50
2023-04-09T08:35:17.591Z,95199.00
2023-04-09T08:37:43.961Z,95192.88
2023-04-09T08:40:11.597Z,95204.91
2023-04-09T08:42:42.655Z,95269.53
2023-04-09T08:45:09.738Z,95380.75
2023-04-09T08:47:36.500Z,95443.50
2023-04-09T08:50:02.985Z,95550.91
2023-04-09T08:52:33.020Z,95651.25
2023-04-09T08:54:59.419Z,95710.63
2023-04-09T08:57:25.804Z,95815.16
2023-04-09T08:59:52.359Z,95929.97
2023-04-09T09:02:18.763Z,96009.25
2023-04-09T09:04:46.483Z,96088.47
2023-04-09T09:07:13.179Z,96128.03
2023-04-09T09:10:03.466Z,96142.84
2023-04-09T09:12:40.388Z,96208.69
2023-04-09T09:15:27.290Z,96245.72
2023-04-09T09:17:58.367Z,96240.69
2023-04-09T09:20:25.088Z,96217.53
2023-04-09T09:22:54.882Z,96258.41
2023-04-09T09:25:26.424Z,96322.09
2023-04-09T09:27:53.310Z,96393.63
2023-04-09T09:30:26.814Z,96437.34
2023-04-09T09:33:13.633Z,96580.31
2023-04-09T09:35:48.166Z,96715.44
2023-04-09T09:38:15.958Z,96838.53
2023-04-09T09:40:42.392Z,96941.72
2023-04-09T09:43:08.764Z,96941.47
2023-04-09T09:45:36.590Z,97054.44
2023-04-09T09:48:03.978Z,97232.75
2023-04-09T09:50:30.791Z,97416.94
2023-04-09T09:53:01.318Z,97508.81
2023-04-09T09:55:27.913Z,97612.75
2023-04-09T09:57:54.288Z,97658.81
2023-04-09T10:00:25.257Z,97789.44
2023-04-09T10:02:57.495Z,97771.50
2023-04-09T10:05:26.885Z,97766.09
2023-04-09T10:07:57.999Z,97764.72
2023-04-09T10:10:25.119Z,97857.41
2023-04-09T10:12:52.092Z,97882.00
2023-04-09T10:15:21.552Z,97972.97
2023-04-09T10:17:48.035Z,98037.19
2023-04-09T10:20:17.346Z,98088.56
2023-04-09T10:22:45.275Z,98153.34
2023-04-09T10:25:12.003Z,98144.50
2023-04-09T10:27:38.404Z,98264.75
2023-04-09T10:30:07.401Z,98416.09
2023-04-09T10:32:36.984Z,98566.06
2023-04-09T10:35:04.084Z,98592.22
2023-04-09T10:37:30.772Z,98622.59
2023-04-09T10:39:58.009Z,98578.19
2023-04-09T10:42:29.335Z,98598.81
2023-04-09T10:45:14.949Z,98704.47
2023-04-09T10:47:43.026Z,98708.06
2023-04-09T10:50:25.905Z,98737.44
2023-04-09T10:52:53.663Z,98919.81
2023-04-09T10:55:39.092Z,99014.84
2023-04-09T10:58:07.133Z,98959.50
2023-04-09T11:00:41.667Z,98988.19
2023-04-09T11:03:20.860Z,99009.25
2023-04-09T11:05:49.791Z,99097.97
2023-04-09T11:08:16.515Z,99137.94
2023-04-09T11:10:44.674Z,99031.53
2023-04-09T11:13:12.546Z,99199.91
2023-04-09T11:15:39.084Z,99302.50
2023-04-09T11:18:09.696Z,99458.47
2023-04-09T11:20:36.562Z,99541.84
2023-04-09T11:23:02.995Z,99517.19
2023-04-09T11:25:31.312Z,99671.06
2023-04-09T11:27:57.982Z,99746.59
2023-04-09T11:30:24.344Z,99807.16
2023-04-09T11:32:51.155Z,99821.06
2023-04-09T11:35:19.265Z,99825.44
2023-04-09T11:37:45.769Z,99867.56
2023-04-09T11:40:19.251Z,99977.78
2023-04-09T11:42:46.072Z,100055.50
2023-04-09T11:45:12.598Z,100260.34
2023-04-09T11:47:39.833Z,100354.97
2023-04-09T11:50:07.814Z,100791.16
2023-04-09T11:52:35.768Z,101520.97
2023-04-09T11:55:04.328Z,101621.63
2023-04-09T11:57:41.490Z,101640.97
2023-04-09T12:00:12.319Z,101654.19
2023-04-09T12:02:40.672Z,101662.59
2023-04-09T12:05:11.874Z,101660.59
2023-04-09T12:07:39.604Z,101633.59
2023-04-09T12:10:10.444Z,101689.41
2023-04-09T12:12:41.345Z,101687.75
2023-04-09T12:15:11.743Z,101692.06
2023-04-09T12:17:38.147Z,101707.28
2023-04-09T12:20:07.170Z,101746.50
2023-04-09T12:22:33.778Z,101741.28
2023-04-09T12:25:00.453Z,101703.81
2023-04-09T12:27:26.812Z,101765.31
2023-04-09T12:29:53.197Z,101769.28
2023-04-09T12:32:19.570Z,101747.09
2023-04-09T12:34:47.544Z,101718.53
2023-04-09T12:37:13.944Z,101736.19
2023-04-09T12:39:40.306Z,101769.66
2023-04-09T12:42:06.871Z,101757.06
2023-04-09T12:44:33.644Z,101747.25
2023-04-09T12:47:00.177Z,101753.06
2023-04-09T12:49:26.587Z,101769.88
2023-04-09T12:51:52.938Z,101775.72
2023-04-09T12:54:19.308Z,101792.44
2023-04-09T12:56:45.950Z,101796.72
2023-04-09T12:59:12.664Z,101800.63
2023-04-09T13:01:40.751Z,101804.19
2023-04-09T13:04:09.636Z,101803.53
2023-04-09T13:06:36.496Z,101803.28
2023-04-09T13:09:02.839Z,101801.59
2023-04-09T13:11:29.243Z,101800.66
2023-04-09T13:13:55.640Z,101811.34
2023-04-09T13:16:22.249Z,101811.63
2023-04-09T13:18:48.663Z,101811.50
2023-04-09T13:21:18.648Z,101810.81
2023-04-09T13:23:45.261Z,101801.81
2023-04-09T13:26:11.644Z,101802.59
2023-04-09T13:28:38.032Z,101802.59
2023-04-09T13:31:05.760Z,101793.16
2023-04-09T13:33:32.400Z,101791.91
2023-04-09T13:35:58.816Z,101787.56
2023-04-09T13:38:25.428Z,101785.34
2023-04-09T13:40:51.995Z,101781.19
2023-04-09T13:43:18.521Z,101787.16
2023-04-09T13:45:44.891Z,101793.59
2023-04-09T13:48:13.390Z,101790.53
2023-04-09T13:50:41.125Z,101782.53
2023-04-09T13:53:07.572Z,101780.91
2023-04-09T13:55:34.113Z,101786.00
2023-04-09T13:58:00.435Z,101783.91
2023-04-09T14:00:27.066Z,101774.84
2023-04-09T14:02:53.660Z,101777.16
2023-04-09T14:05:20.319Z,101789.59
2023-04-09T14:07:46.683Z,101785.44
2023-04-09T14:10:13.238Z,101777.97
2023-04-09T14:12:39.580Z,101773.34
2023-04-09T14:15:06.748Z,101770.59
2023-04-09T14:17:33.315Z,101778.53
2023-04-09T14:19:59.671Z,101770.06
2023-04-09T14:22:27.090Z,101767.53
2023-04-09T14:24:53.749Z,101765.47
2023-04-09T14:27:20.293Z,101771.47
2023-04-09T14:29:46.688Z,101761.19
2023-04-09T14:32:13.265Z,101767.75
2023-04-09T14:34:39.652Z,101762.09
2023-04-09T14:37:06.012Z,101758.81
2023-04-09T14:39:32.393Z,101765.50
2023-04-09T14:41:58.740Z,101759.44
2023-04-09T14:44:25.852Z,101752.56
2023-04-09T14:46:54.662Z,101758.84
2023-04-09T14:49:21.403Z,101747.19
2023-04-09T14:51:47.758Z,101755.63
2023-04-09T14:54:14.160Z,101757.19
2023-04-09T14:56:40.593Z,101750.59
2023-04-09T14:59:06.946Z,101737.03
2023-04-09T15:01:33.468Z,101754.00
2023-04-09T15:04:00.508Z,101752.91
2023-04-09T15:06:27.929Z,101745.34
2023-04-09T15:08:54.531Z,101737.56
2023-04-09T15:11:22.801Z,101748.91
2023-04-09T15:13:49.246Z,101745.44
2023-04-09T15:16:26.968Z,101740.56
2023-04-09T15:18:55.703Z,101743.06
2023-04-09T15:21:22.470Z,101735.78
2023-04-09T15:23:52.207Z,101739.13
2023-04-09T15:26:18.852Z,101746.69
2023-04-09T15:28:46.092Z,101745.28
2023-04-09T15:31:12.838Z,101742.91
2023-04-09T15:33:40.260Z,101737.50
2023-04-09T15:36:07.012Z,101744.00
2023-04-09T15:38:33.595Z,101730.28
2023-04-09T15:40:59.971Z,101734.88
2023-04-09T15:43:27.344Z,101740.28
2023-04-09T15:45:54.023Z,101729.13
2023-04-09T15:48:20.679Z,101736.09
2023-04-09T15:50:47.063Z,101733.66
2023-04-09T15:53:14.152Z,101727.69
2023-04-09T15:55:40.638Z,101725.66
2023-04-09T15:58:07.145Z,101719.66
2023-04-09T16:00:33.788Z,101716.56
2023-04-09T16:03:00.166Z,101715.94
2023-04-09T16:05:26.987Z,101706.97
2023-04-09T16:07:53.390Z,101710.06
2023-04-09T16:10:19.915Z,101708.59
2023-04-09T16:12:46.595Z,101705.06
2023-04-09T16:15:13.063Z,101708.63
2023-04-09T16:17:41.214Z,101707.59
2023-04-09T16:20:08.389Z,101704.91
2023-04-09T16:22:35.287Z,101698.56
2023-04-09T16:25:01.727Z,101706.13
2023-04-09T16:27:28.125Z,101705.72
2023-04-09T16:29:54.505Z,101714.41
2023-04-09T16:32:20.880Z,101710.94
2023-04-09T16:34:47.441Z,101718.63
2023-04-09T16:37:14.007Z,101710.81
2023-04-09T16:39:40.628Z,101714.91
2023-04-09T16:42:07.064Z,101706.28
2023-04-09T16:44:33.497Z,101704.28
2023-04-09T16:47:00.992Z,101693.31
2023-04-09T16:49:27.334Z,101692.88
2023-04-09T16:51:54.283Z,101702.72
2023-04-09T16:54:20.885Z,101701.06
2023-04-09T16:56:48.672Z,101699.28
2023-04-09T16:59:17.350Z,101715.06
2023-04-09T17:01:44.047Z,101712.88
2023-04-09T17:04:10.592Z,101701.22
2023-04-09T17:06:37.143Z,101693.38
2023-04-09T17:09:05.310Z,101687.59
2023-04-09T17:11:32.687Z,101692.63
2023-04-09T17:13:59.259Z,101675.06
2023-04-09T17:16:25.743Z,101686.22
2023-04-09T17:18:52.351Z,101694.47
2023-04-09T17:21:19.250Z,101663.53
2023-04-09T17:23:45.708Z,101665.81
2023-04-09T17:26:12.062Z,101657.09
2023-04-09T17:28:38.450Z,101624.06
2023-04-09T17:31:12.032Z,101622.78
2023-04-09T17:33:38.767Z,101609.94
2023-04-09T17:36:05.299Z,101568.81
2023-04-09T17:38:31.914Z,101533.09
2023-04-09T17:40:58.274Z,101515.22
2023-04-09T17:43:24.904Z,101327.72
2023-04-09T17:45:51.272Z,101054.66
2023-04-09T17:48:17.824Z,100652.88
2023-04-09T17:50:44.460Z,100321.38
2023-04-09T17:53:11.403Z,100197.56
2023-04-09T17:55:37.835Z,100008.91
2023-04-09T17:58:04.390Z,99867.75
2023-04-09T18:00:31.588Z,99803.53
2023-04-09T18:02:58.800Z,99826.78
2023-04-09T18:05:26.135Z,99890.28
2023-04-09T18:07:54.923Z,99932.63
2023-04-09T18:10:21.485Z,99956.72
2023-04-09T18:12:47.855Z,99960.47
2023-04-09T18:15:15.065Z,99966.91
2023-04-09T18:17:41.817Z,99967.25
2023-04-09T18:20:08.689Z,99975.59
2023-04-09T18:22:35.189Z,99954.84
2023-04-09T18:25:01.884Z,99955.13
2023-04-09T18:27:28.270Z,99962.41
2023-04-09T18:29:55.794Z,99976.03
2023-04-09T18:32:22.250Z,99964.19
2023-04-09T18:34:48.811Z,99959.16
2023-04-09T18:37:15.281Z,99955.19
2023-04-09T18:39:41.649Z,99960.84
2023-04-09T18:42:08.257Z,99973.34
2023-04-09T18:44:36.285Z,99967.16
2023-04-09T18:47:05.392Z,99966.28
2023-04-09T18:49:35.775Z,99970.88
2023-04-09T18:52:02.422Z,99988.63
2023-04-09T18:54:28.806Z,99977.59
2023-04-09T18:56:57.188Z,99965.72
2023-04-09T18:59:23.560Z,99975.63
2023-04-09T19:01:49.987Z,99967.97
2023-04-09T19:04:16.533Z,99960.34
2023-04-09T19:06:45.996Z,99969.22
2023-04-09T19:09:12.334Z,99951.97
2023-04-09T19:11:38.729Z,99954.09
2023-04-09T19:14:05.093Z,99957.75
2023-04-09T19:16:31.500Z,99945.69
2023-04-09T19:18:57.981Z,99944.19
2023-04-09T19:21:24.490Z,99944.38
2023-04-09T19:23:50.887Z,99930.50
2023-04-09T19:26:18.165Z,99902.75
2023-04-09T19:28:44.530Z,99901.25
2023-04-09T19:31:14.198Z,99903.22
2023-04-09T19:33:40.643Z,99896.38
2023-04-09T19:36:08.137Z,99900.06
2023-04-09T19:38:34.594Z,99895.03
2023-04-09T19:41:01.294Z,99883.91
2023-04-09T19:43:27.653Z,99869.28
2023-04-09T19:45:54.097Z,99848.59
2023-04-09T19:48:20.523Z,99834.06
2023-04-09T19:50:48.307Z,99826.34
2023-04-09T19:53:15.057Z,99812.59
2023-04-09T19:55:41.429Z,99803.09
2023-04-09T19:58:07.829Z,99785.81
2023-04-09T20:00:34.333Z,99773.03
2023-04-09T20:03:01.288Z,99762.66
2023-04-09T20:05:27.814Z,99747.13
2023-04-09T20:07:54.514Z,99735.94
2023-04-09T20:10:21.096Z,99729.97
2023-04-09T20:12:48.387Z,99719.63
2023-04-09T20:15:15.183Z,99732.03
2023-04-09T20:17:41.913Z,99710.44
2023-04-09T20:20:08.555Z,99695.78
2023-04-09T20:22:34.993Z,99690.56
2023-04-09T20:25:01.665Z,99668.75
2023-04-09T20:27:28.096Z,99659.19
2023-04-09T20:29:54.455Z,99663.53
2023-04-09T20:32:21.027Z,99660.97
2023-04-09T20:34:47.585Z,99661.06
2023-04-09T20:37:13.953Z,99655.94
2023-04-09T20:39:40.505Z,99664.84
2023-04-09T20:42:06.861Z,99636.38
2023-04-09T20:44:33.865Z,99615.72
2023-04-09T20:47:00.524Z,99611.44
2023-04-09T20:49:27.777Z,99613.22
2023-04-09T20:51:54.173Z,99589.72
2023-04-09T20:54:22.651Z,99575.88
2023-04-09T20:56:49.062Z,99548.97
2023-04-09T20:59:15.445Z,99544.66
2023-04-09T21:01:41.917Z,99554.47
2023-04-09T21:04:08.857Z,99548.53
2023-04-09T21:06:35.453Z,99526.00
2023-04-09T21:09:01.858Z,99510.56
2023-04-09T21:11:28.719Z,99505.66
2023-04-09T21:13:55.758Z,99449.19
2023-04-09T21:16:22.926Z,99453.63
2023-04-09T21:18:50.090Z,99457.19
2023-04-09T21:21:16.480Z,99445.06
2023-04-09T21:23:42.873Z,99448.78
2023-04-09T21:26:10.048Z,99435.94
2023-04-09T21:28:36.444Z,99415.00
2023-04-09T21:31:03.161Z,99423.91
2023-04-09T21:33:30.311Z,99401.31
2023-04-09T21:35:56.973Z,99390.28
2023-04-09T21:38:23.566Z,99365.19
2023-04-09T21:40:50.006Z,99365.41
2023-04-09T21:43:16.573Z,99339.44
2023-04-09T21:45:43.025Z,99334.31
2023-04-09T21:48:09.452Z,99303.28
2023-04-09T21:50:35.975Z,99277.47
2023-04-09T21:53:03.246Z,99243.63
2023-04-09T21:55:29.770Z,99190.75
2023-04-09T21:57:56.266Z,99151.75
2023-04-09T22:00:23.086Z,99128.50
2023-04-09T22:02:49.581Z,99109.69
2023-04-09T22:05:16.059Z,99102.19
2023-04-09T22:07:42.630Z,99095.13
2023-04-09T22:10:09.495Z,99115.19
2023-04-09T22:12:37.101Z,99046.59
2023-04-09T22:15:04.986Z,98964.97
2023-04-09T22:17:31.426Z,98939.09
2023-04-09T22:19:58.488Z,98940.78
2023-04-09T22:22:24.861Z,98929.63
2023-04-09T22:24:51.436Z,98936.69
2023-04-09T22:27:17.806Z,98919.50
2023-04-09T22:29:44.347Z,98928.44
2023-04-09T22:32:10.738Z,98926.84
2023-04-09T22:34:37.116Z,98922.75
2023-04-09T22:37:03.528Z,98927.28
2023-04-09T22:39:29.878Z,98907.34
2023-04-09T22:41:56.314Z,98895.34
2023-04-09T22:44:22.698Z,98881.63
2023-04-09T22:46:49.181Z,98866.13
2023-04-09T22:49:15.866Z,98851.53
2023-04-09T22:51:42.681Z,98810.06
2023-04-09T22:54:09.208Z,98795.53
2023-04-09T22:56:36.602Z,98787.84
2023-04-09T22:59:03.334Z,98770.56
2023-04-09T23:01:29.765Z,98775.94
2023-04-09T23:03:56.296Z,98793.28
2023-04-09T23:06:23.091Z,98788.94
2023-04-09T23:08:49.573Z,98786.50
2023-04-09T23:11:16.180Z,98804.00
2023-04-09T23:13:42.546Z,98785.91
2023-04-09T23:16:09.564Z,98794.66
2023-04-09T23:18:36.213Z,98818.31
2023-04-09T23:21:07.047Z,98840.88
2023-04-09T23:23:34.065Z,98823.63
2023-04-09T23:26:00.844Z,98823.00
2023-04-09T23:28:27.678Z,98819.78
2023-04-09T23:30:54.470Z,98791.22
2023-04-09T23:33:20.901Z,98787.00
2023-04-09T23:35:47.498Z,98764.53
2023-04-09T23:38:15.033Z,98743.81
2023-04-09T23:40:41.442Z,98755.16
2023-04-09T23:43:07.817Z,98743.06
2023-04-09T23:45:34.178Z,98739.78
2023-04-09T23:48:00.540Z,98752.97
2023-04-09T23:50:28.775Z,98767.88
2023-04-09T23:52:59.703Z,98747.09
2023-04-09T23:55:27.028Z,98733.31
2023-04-09T23:57:53.813Z,98707.25
